sensor_id;sensor_type;location;lat;lon;timestamp;temperature;humidity
16158;DHT22;8184;60.256;18.694;2022-12-07T00:01:17;-3.40;99.90
16158;DHT22;8184;60.256;18.694;2022-12-07T00:03:46;-3.30;99.90
16158;DHT22;8184;60.256;18.694;2022-12-07T00:06:15;-3.40;99.90
16158;DHT22;8184;60.256;18.694;2022-12-07T00:08:46;-3.30;99.90
16158;DHT22;8184;60.256;18.694;2022-12-07T00:11:15;-3.30;99.90
16158;DHT22;8184;60.256;18.694;2022-12-07T00:13:46;-3.40;99.90
16158;DHT22;8184;60.256;18.694;2022-12-07T00:16:15;-3.40;99.90
16158;DHT22;8184;60.256;18.694;2022-12-07T00:18:45;-3.40;99.90
16158;DHT22;8184;60.256;18.694;2022-12-07T00:21:14;-3.40;99.90
16158;DHT22;8184;60.256;18.694;2022-12-07T00:23:43;-3.30;99.90
16158;DHT22;8184;60.256;18.694;2022-12-07T00:26:15;-3.40;99.90
16158;DHT22;8184;60.256;18.694;2022-12-07T00:28:46;-3.40;99.90
16158;DHT22;8184;60.256;18.694;2022-12-07T00:31:15;-3.50;99.90
16158;DHT22;8184;60.256;18.694;2022-12-07T00:33:45;-3.40;99.90
16158;DHT22;8184;60.256;18.694;2022-12-07T00:36:15;-3.40;99.90
16158;DHT22;8184;60.256;18.694;2022-12-07T00:38:50;-3.30;99.90
16158;DHT22;8184;60.256;18.694;2022-12-07T00:41:19;-3.30;99.90
16158;DHT22;8184;60.256;18.694;2022-12-07T00:43:47;-3.20;99.90
16158;DHT22;8184;60.256;18.694;2022-12-07T00:46:16;-3.20;99.90
16158;DHT22;8184;60.256;18.694;2022-12-07T00:48:46;-3.20;99.90
16158;DHT22;8184;60.256;18.694;2022-12-07T00:51:15;-3.30;99.90
16158;DHT22;8184;60.256;18.694;2022-12-07T00:53:44;-3.20;99.90
16158;DHT22;8184;60.256;18.694;2022-12-07T00:56:13;-3.20;99.90
16158;DHT22;8184;60.256;18.694;2022-12-07T00:58:42;-3.10;99.90
16158;DHT22;8184;60.256;18.694;2022-12-07T01:01:10;-3.00;99.90
16158;DHT22;8184;60.256;18.694;2022-12-07T01:03:39;-3.00;99.90
16158;DHT22;8184;60.256;18.694;2022-12-07T01:06:09;-3.10;99.90
16158;DHT22;8184;60.256;18.694;2022-12-07T01:08:37;-3.20;99.90
16158;DHT22;8184;60.256;18.694;2022-12-07T01:11:06;-3.30;99.90
16158;DHT22;8184;60.256;18.694;2022-12-07T01:13:35;-3.30;99.90
16158;DHT22;8184;60.256;18.694;2022-12-07T01:16:05;-3.40;99.90
16158;DHT22;8184;60.256;18.694;2022-12-07T01:18:34;-3.40;99.90
16158;DHT22;8184;60.256;18.694;2022-12-07T01:21:03;-3.40;99.90
16158;DHT22;8184;60.256;18.694;2022-12-07T01:23:33;-3.40;99.90
16158;DHT22;8184;60.256;18.694;2022-12-07T01:26:03;-3.40;99.90
16158;DHT22;8184;60.256;18.694;2022-12-07T01:28:32;-3.30;99.90
16158;DHT22;8184;60.256;18.694;2022-12-07T01:31:01;-3.40;99.90
16158;DHT22;8184;60.256;18.694;2022-12-07T01:33:30;-3.40;99.90
16158;DHT22;8184;60.256;18.694;2022-12-07T01:36:01;-3.40;99.90
16158;DHT22;8184;60.256;18.694;2022-12-07T01:38:30;-3.40;99.90
16158;DHT22;8184;60.256;18.694;2022-12-07T01:41:00;-3.40;99.90
16158;DHT22;8184;60.256;18.694;2022-12-07T01:43:29;-3.50;99.90
16158;DHT22;8184;60.256;18.694;2022-12-07T01:45:58;-3.50;99.90
16158;DHT22;8184;60.256;18.694;2022-12-07T01:48:30;-3.50;99.90
16158;DHT22;8184;60.256;18.694;2022-12-07T01:51:01;-3.50;99.90
16158;DHT22;8184;60.256;18.694;2022-12-07T01:53:32;-3.50;99.90
16158;DHT22;8184;60.256;18.694;2022-12-07T01:56:03;-3.40;99.90
16158;DHT22;8184;60.256;18.694;2022-12-07T01:58:32;-3.20;99.90
16158;DHT22;8184;60.256;18.694;2022-12-07T02:01:01;-3.10;99.90
16158;DHT22;8184;60.256;18.694;2022-12-07T02:03:30;-3.10;99.90
16158;DHT22;8184;60.256;18.694;2022-12-07T02:06:00;-3.10;99.90
16158;DHT22;8184;60.256;18.694;2022-12-07T02:08:28;-3.10;99.90
16158;DHT22;8184;60.256;18.694;2022-12-07T02:10:56;-3.00;99.90
16158;DHT22;8184;60.256;18.694;2022-12-07T02:13:26;-3.10;99.90
16158;DHT22;8184;60.256;18.694;2022-12-07T02:16:06;-3.00;99.90
16158;DHT22;8184;60.256;18.694;2022-12-07T02:18:49;-2.90;99.90
16158;DHT22;8184;60.256;18.694;2022-12-07T02:21:20;-2.90;99.90
16158;DHT22;8184;60.256;18.694;2022-12-07T02:29:40;-2.80;99.90
16158;DHT22;8184;60.256;18.694;2022-12-07T02:32:11;-2.90;99.90
16158;DHT22;8184;60.256;18.694;2022-12-07T02:34:44;-3.00;99.90
16158;DHT22;8184;60.256;18.694;2022-12-07T02:37:18;-2.90;99.90
16158;DHT22;8184;60.256;18.694;2022-12-07T02:39:48;-3.00;99.90
16158;DHT22;8184;60.256;18.694;2022-12-07T02:42:19;-3.00;99.90
16158;DHT22;8184;60.256;18.694;2022-12-07T02:44:53;-3.10;99.90
16158;DHT22;8184;60.256;18.694;2022-12-07T02:47:21;-3.10;99.90
16158;DHT22;8184;60.256;18.694;2022-12-07T02:49:51;-3.00;99.90
16158;DHT22;8184;60.256;18.694;2022-12-07T02:52:20;-3.10;99.90
16158;DHT22;8184;60.256;18.694;2022-12-07T02:54:48;-3.00;99.90
16158;DHT22;8184;60.256;18.694;2022-12-07T02:57:23;-3.10;99.90
16158;DHT22;8184;60.256;18.694;2022-12-07T03:00:01;-3.20;99.90
16158;DHT22;8184;60.256;18.694;2022-12-07T03:02:34;-3.20;99.90
16158;DHT22;8184;60.256;18.694;2022-12-07T03:05:08;-3.20;99.90
16158;DHT22;8184;60.256;18.694;2022-12-07T03:07:39;-3.20;99.90
16158;DHT22;8184;60.256;18.694;2022-12-07T03:10:13;-3.10;99.90
16158;DHT22;8184;60.256;18.694;2022-12-07T03:12:43;-3.10;99.90
16158;DHT22;8184;60.256;18.694;2022-12-07T03:15:16;-3.10;99.90
16158;DHT22;8184;60.256;18.694;2022-12-07T03:17:46;-3.10;99.90
16158;DHT22;8184;60.256;18.694;2022-12-07T03:20:16;-3.10;99.90
16158;DHT22;8184;60.256;18.694;2022-12-07T03:22:46;-3.20;99.90
16158;DHT22;8184;60.256;18.694;2022-12-07T03:25:15;-3.20;99.90
16158;DHT22;8184;60.256;18.694;2022-12-07T03:27:45;-3.10;99.90
16158;DHT22;8184;60.256;18.694;2022-12-07T03:30:18;-3.20;99.90
16158;DHT22;8184;60.256;18.694;2022-12-07T03:32:48;-3.30;99.90
16158;DHT22;8184;60.256;18.694;2022-12-07T03:35:19;-3.30;99.90
16158;DHT22;8184;60.256;18.694;2022-12-07T03:37:50;-3.30;99.90
16158;DHT22;8184;60.256;18.694;2022-12-07T03:40:22;-3.40;99.90
16158;DHT22;8184;60.256;18.694;2022-12-07T03:42:51;-3.30;99.90
16158;DHT22;8184;60.256;18.694;2022-12-07T03:45:22;-3.30;99.90
16158;DHT22;8184;60.256;18.694;2022-12-07T03:47:54;-3.40;99.90
16158;DHT22;8184;60.256;18.694;2022-12-07T03:50:28;-3.40;99.90
16158;DHT22;8184;60.256;18.694;2022-12-07T03:52:58;-3.30;99.90
16158;DHT22;8184;60.256;18.694;2022-12-07T03:55:29;-3.30;99.90
16158;DHT22;8184;60.256;18.694;2022-12-07T03:58:02;-3.40;99.90
16158;DHT22;8184;60.256;18.694;2022-12-07T04:00:32;-3.40;99.90
16158;DHT22;8184;60.256;18.694;2022-12-07T04:03:01;-3.40;99.90
16158;DHT22;8184;60.256;18.694;2022-12-07T04:05:29;-3.40;99.90
16158;DHT22;8184;60.256;18.694;2022-12-07T04:07:57;-3.50;99.90
16158;DHT22;8184;60.256;18.694;2022-12-07T04:10:26;-3.50;99.90
16158;DHT22;8184;60.256;18.694;2022-12-07T04:12:54;-3.40;99.90
16158;DHT22;8184;60.256;18.694;2022-12-07T04:15:22;-3.50;99.90
16158;DHT22;8184;60.256;18.694;2022-12-07T04:17:52;-3.50;99.90
16158;DHT22;8184;60.256;18.694;2022-12-07T04:20:20;-3.60;99.90
16158;DHT22;8184;60.256;18.694;2022-12-07T04:22:48;-3.60;99.90
16158;DHT22;8184;60.256;18.694;2022-12-07T04:25:17;-3.50;99.90
16158;DHT22;8184;60.256;18.694;2022-12-07T04:27:45;-3.50;99.90
16158;DHT22;8184;60.256;18.694;2022-12-07T04:30:13;-3.50;99.90
16158;DHT22;8184;60.256;18.694;2022-12-07T04:32:41;-3.50;99.90
16158;DHT22;8184;60.256;18.694;2022-12-07T04:35:11;-3.50;99.90
16158;DHT22;8184;60.256;18.694;2022-12-07T04:37:39;-3.40;99.90
16158;DHT22;8184;60.256;18.694;2022-12-07T04:40:09;-3.50;99.90
16158;DHT22;8184;60.256;18.694;2022-12-07T04:42:41;-3.50;99.90
16158;DHT22;8184;60.256;18.694;2022-12-07T04:45:10;-3.50;99.90
16158;DHT22;8184;60.256;18.694;2022-12-07T04:47:38;-3.30;99.90
16158;DHT22;8184;60.256;18.694;2022-12-07T04:50:06;-3.30;99.90
16158;DHT22;8184;60.256;18.694;2022-12-07T04:52:36;-3.20;99.90
16158;DHT22;8184;60.256;18.694;2022-12-07T04:55:05;-3.30;99.90
16158;DHT22;8184;60.256;18.694;2022-12-07T04:57:33;-3.20;99.90
16158;DHT22;8184;60.256;18.694;2022-12-07T05:00:02;-3.30;99.90
16158;DHT22;8184;60.256;18.694;2022-12-07T05:02:32;-3.30;99.90
16158;DHT22;8184;60.256;18.694;2022-12-07T05:05:00;-3.30;99.90
16158;DHT22;8184;60.256;18.694;2022-12-07T05:07:28;-3.20;99.90
16158;DHT22;8184;60.256;18.694;2022-12-07T05:09:59;-3.30;99.90
16158;DHT22;8184;60.256;18.694;2022-12-07T05:12:28;-3.30;99.90
16158;DHT22;8184;60.256;18.694;2022-12-07T05:14:58;-3.40;99.90
16158;DHT22;8184;60.256;18.694;2022-12-07T05:17:26;-3.50;99.90
16158;DHT22;8184;60.256;18.694;2022-12-07T05:19:54;-3.60;99.90
16158;DHT22;8184;60.256;18.694;2022-12-07T05:22:22;-3.60;99.90
16158;DHT22;8184;60.256;18.694;2022-12-07T05:24:54;-3.50;99.90
16158;DHT22;8184;60.256;18.694;2022-12-07T05:27:24;-3.50;99.90
16158;DHT22;8184;60.256;18.694;2022-12-07T05:29:55;-3.50;99.90
16158;DHT22;8184;60.256;18.694;2022-12-07T05:32:23;-3.60;99.90
16158;DHT22;8184;60.256;18.694;2022-12-07T05:34:52;-3.60;99.90
16158;DHT22;8184;60.256;18.694;2022-12-07T05:37:21;-3.60;99.90
16158;DHT22;8184;60.256;18.694;2022-12-07T05:39:49;-3.70;99.90
16158;DHT22;8184;60.256;18.694;2022-12-07T05:42:18;-3.70;99.90
16158;DHT22;8184;60.256;18.694;2022-12-07T05:44:47;-3.70;99.90
16158;DHT22;8184;60.256;18.694;2022-12-07T05:47:15;-3.80;99.90
16158;DHT22;8184;60.256;18.694;2022-12-07T05:49:44;-3.90;99.90
16158;DHT22;8184;60.256;18.694;2022-12-07T05:52:12;-3.80;99.90
16158;DHT22;8184;60.256;18.694;2022-12-07T05:54:40;-4.00;99.90
16158;DHT22;8184;60.256;18.694;2022-12-07T05:57:09;-3.90;99.90
16158;DHT22;8184;60.256;18.694;2022-12-07T05:59:40;-3.70;99.90
16158;DHT22;8184;60.256;18.694;2022-12-07T06:02:09;-3.80;99.90
16158;DHT22;8184;60.256;18.694;2022-12-07T06:04:38;-4.00;99.90
16158;DHT22;8184;60.256;18.694;2022-12-07T06:07:07;-4.10;99.90
16158;DHT22;8184;60.256;18.694;2022-12-07T06:09:35;-4.10;99.90
16158;DHT22;8184;60.256;18.694;2022-12-07T06:12:04;-4.20;99.90
16158;DHT22;8184;60.256;18.694;2022-12-07T06:14:50;-4.20;99.90
16158;DHT22;8184;60.256;18.694;2022-12-07T06:17:19;-4.40;99.90
16158;DHT22;8184;60.256;18.694;2022-12-07T06:19:48;-4.30;99.90
16158;DHT22;8184;60.256;18.694;2022-12-07T06:22:16;-4.40;99.90
16158;DHT22;8184;60.256;18.694;2022-12-07T06:24:44;-4.30;99.90
16158;DHT22;8184;60.256;18.694;2022-12-07T06:27:12;-4.20;99.90
16158;DHT22;8184;60.256;18.694;2022-12-07T06:29:41;-4.40;99.90
16158;DHT22;8184;60.256;18.694;2022-12-07T06:32:09;-4.60;99.90
16158;DHT22;8184;60.256;18.694;2022-12-07T06:34:39;-4.50;99.90
16158;DHT22;8184;60.256;18.694;2022-12-07T06:37:08;-4.30;99.90
16158;DHT22;8184;60.256;18.694;2022-12-07T06:39:36;-4.10;99.90
16158;DHT22;8184;60.256;18.694;2022-12-07T06:42:05;-4.20;99.90
16158;DHT22;8184;60.256;18.694;2022-12-07T06:44:33;-4.40;99.90
16158;DHT22;8184;60.256;18.694;2022-12-07T06:47:01;-4.30;99.90
16158;DHT22;8184;60.256;18.694;2022-12-07T06:49:52;-4.20;99.90
16158;DHT22;8184;60.256;18.694;2022-12-07T06:52:20;-4.00;99.90
16158;DHT22;8184;60.256;18.694;2022-12-07T06:54:51;-4.00;99.90
16158;DHT22;8184;60.256;18.694;2022-12-07T06:57:19;-4.10;99.90
16158;DHT22;8184;60.256;18.694;2022-12-07T06:59:49;-3.90;99.90
16158;DHT22;8184;60.256;18.694;2022-12-07T07:02:17;-3.80;99.90
16158;DHT22;8184;60.256;18.694;2022-12-07T07:04:46;-3.80;99.90
16158;DHT22;8184;60.256;18.694;2022-12-07T07:07:15;-3.80;99.90
16158;DHT22;8184;60.256;18.694;2022-12-07T07:09:43;-3.70;99.90
16158;DHT22;8184;60.256;18.694;2022-12-07T07:12:12;-3.70;99.90
16158;DHT22;8184;60.256;18.694;2022-12-07T07:14:40;-3.60;99.90
16158;DHT22;8184;60.256;18.694;2022-12-07T07:17:08;-3.40;99.90
16158;DHT22;8184;60.256;18.694;2022-12-07T07:19:36;-3.50;99.90
16158;DHT22;8184;60.256;18.694;2022-12-07T07:22:05;-3.50;99.90
16158;DHT22;8184;60.256;18.694;2022-12-07T07:24:34;-3.50;99.90
16158;DHT22;8184;60.256;18.694;2022-12-07T07:27:03;-3.50;99.90
16158;DHT22;8184;60.256;18.694;2022-12-07T07:29:31;-3.60;99.90
16158;DHT22;8184;60.256;18.694;2022-12-07T07:32:00;-3.70;99.90
16158;DHT22;8184;60.256;18.694;2022-12-07T07:34:32;-3.60;99.90
16158;DHT22;8184;60.256;18.694;2022-12-07T07:37:00;-3.70;99.90
16158;DHT22;8184;60.256;18.694;2022-12-07T07:39:28;-3.50;99.90
16158;DHT22;8184;60.256;18.694;2022-12-07T07:41:58;-3.70;99.90
16158;DHT22;8184;60.256;18.694;2022-12-07T07:44:26;-3.70;99.90
16158;DHT22;8184;60.256;18.694;2022-12-07T07:47:01;-3.50;99.90
16158;DHT22;8184;60.256;18.694;2022-12-07T07:49:30;-3.50;99.90
16158;DHT22;8184;60.256;18.694;2022-12-07T07:51:58;-3.40;99.90
16158;DHT22;8184;60.256;18.694;2022-12-07T07:54:26;-3.30;99.90
16158;DHT22;8184;60.256;18.694;2022-12-07T07:56:54;-3.40;99.90
16158;DHT22;8184;60.256;18.694;2022-12-07T07:59:24;-3.30;99.90
16158;DHT22;8184;60.256;18.694;2022-12-07T08:01:53;-3.30;99.90
16158;DHT22;8184;60.256;18.694;2022-12-07T08:04:21;-3.30;99.90
16158;DHT22;8184;60.256;18.694;2022-12-07T08:06:50;-3.30;99.90
16158;DHT22;8184;60.256;18.694;2022-12-07T08:09:18;-3.40;99.90
16158;DHT22;8184;60.256;18.694;2022-12-07T08:11:46;-3.50;99.90
16158;DHT22;8184;60.256;18.694;2022-12-07T08:14:14;-3.50;99.90
16158;DHT22;8184;60.256;18.694;2022-12-07T08:16:44;-3.50;99.90
16158;DHT22;8184;60.256;18.694;2022-12-07T08:19:12;-3.50;99.90
16158;DHT22;8184;60.256;18.694;2022-12-07T08:21:40;-3.50;99.90
16158;DHT22;8184;60.256;18.694;2022-12-07T08:24:08;-3.40;99.90
16158;DHT22;8184;60.256;18.694;2022-12-07T08:26:36;-3.40;99.90
16158;DHT22;8184;60.256;18.694;2022-12-07T08:29:05;-3.50;99.90
16158;DHT22;8184;60.256;18.694;2022-12-07T08:31:33;-3.60;99.90
16158;DHT22;8184;60.256;18.694;2022-12-07T08:34:03;-3.50;99.90
16158;DHT22;8184;60.256;18.694;2022-12-07T08:36:31;-3.50;99.90
16158;DHT22;8184;60.256;18.694;2022-12-07T08:38:59;-3.50;99.90
16158;DHT22;8184;60.256;18.694;2022-12-07T08:41:47;-3.50;99.90
16158;DHT22;8184;60.256;18.694;2022-12-07T08:44:16;-3.70;99.90
16158;DHT22;8184;60.256;18.694;2022-12-07T08:46:44;-3.60;99.90
16158;DHT22;8184;60.256;18.694;2022-12-07T08:49:16;-3.50;99.90
16158;DHT22;8184;60.256;18.694;2022-12-07T08:51:48;-3.60;99.90
16158;DHT22;8184;60.256;18.694;2022-12-07T08:54:16;-3.50;99.90
16158;DHT22;8184;60.256;18.694;2022-12-07T08:56:45;-3.50;99.90
16158;DHT22;8184;60.256;18.694;2022-12-07T08:59:16;-3.50;99.90
16158;DHT22;8184;60.256;18.694;2022-12-07T09:01:45;-3.50;99.90
16158;DHT22;8184;60.256;18.694;2022-12-07T09:04:13;-3.50;99.90
16158;DHT22;8184;60.256;18.694;2022-12-07T09:06:43;-3.40;99.90
16158;DHT22;8184;60.256;18.694;2022-12-07T09:09:15;-3.30;99.90
16158;DHT22;8184;60.256;18.694;2022-12-07T09:11:45;-3.40;99.90
16158;DHT22;8184;60.256;18.694;2022-12-07T09:14:16;-3.40;99.90
16158;DHT22;8184;60.256;18.694;2022-12-07T09:16:46;-3.50;99.90
16158;DHT22;8184;60.256;18.694;2022-12-07T09:19:14;-3.50;99.90
16158;DHT22;8184;60.256;18.694;2022-12-07T09:21:44;-3.40;99.90
16158;DHT22;8184;60.256;18.694;2022-12-07T09:24:12;-3.30;99.90
16158;DHT22;8184;60.256;18.694;2022-12-07T09:26:41;-3.30;99.90
16158;DHT22;8184;60.256;18.694;2022-12-07T09:29:12;-3.20;99.90
16158;DHT22;8184;60.256;18.694;2022-12-07T09:31:40;-3.10;99.90
16158;DHT22;8184;60.256;18.694;2022-12-07T09:34:08;-3.30;99.90
16158;DHT22;8184;60.256;18.694;2022-12-07T09:36:36;-3.20;99.90
16158;DHT22;8184;60.256;18.694;2022-12-07T09:39:06;-3.20;99.90
16158;DHT22;8184;60.256;18.694;2022-12-07T09:41:37;-3.20;99.90
16158;DHT22;8184;60.256;18.694;2022-12-07T09:44:07;-3.30;99.90
16158;DHT22;8184;60.256;18.694;2022-12-07T09:46:36;-3.30;99.90
16158;DHT22;8184;60.256;18.694;2022-12-07T09:49:05;-3.40;99.90
16158;DHT22;8184;60.256;18.694;2022-12-07T09:51:37;-3.20;99.90
16158;DHT22;8184;60.256;18.694;2022-12-07T09:54:08;-3.40;99.90
16158;DHT22;8184;60.256;18.694;2022-12-07T09:56:38;-3.60;99.90
16158;DHT22;8184;60.256;18.694;2022-12-07T09:59:09;-3.60;99.90
16158;DHT22;8184;60.256;18.694;2022-12-07T10:01:40;-3.60;99.90
16158;DHT22;8184;60.256;18.694;2022-12-07T10:04:09;-3.60;99.90
16158;DHT22;8184;60.256;18.694;2022-12-07T10:06:40;-3.50;99.90
16158;DHT22;8184;60.256;18.694;2022-12-07T10:09:10;-3.30;99.90
16158;DHT22;8184;60.256;18.694;2022-12-07T10:11:57;-3.30;99.90
16158;DHT22;8184;60.256;18.694;2022-12-07T10:14:27;-3.50;99.90
16158;DHT22;8184;60.256;18.694;2022-12-07T10:17:32;-3.50;99.90
16158;DHT22;8184;60.256;18.694;2022-12-07T10:20:13;-3.50;99.90
16158;DHT22;8184;60.256;18.694;2022-12-07T10:22:53;-3.70;99.90
16158;DHT22;8184;60.256;18.694;2022-12-07T10:25:25;-3.50;99.90
16158;DHT22;8184;60.256;18.694;2022-12-07T10:27:57;-3.50;99.90
16158;DHT22;8184;60.256;18.694;2022-12-07T10:30:26;-3.50;99.90
16158;DHT22;8184;60.256;18.694;2022-12-07T10:32:54;-3.50;99.90
16158;DHT22;8184;60.256;18.694;2022-12-07T10:35:23;-3.40;99.90
16158;DHT22;8184;60.256;18.694;2022-12-07T10:37:52;-3.30;99.90
16158;DHT22;8184;60.256;18.694;2022-12-07T10:40:27;-3.40;99.90
16158;DHT22;8184;60.256;18.694;2022-12-07T10:43:02;-3.50;99.90
16158;DHT22;8184;60.256;18.694;2022-12-07T10:45:32;-3.60;99.90
16158;DHT22;8184;60.256;18.694;2022-12-07T10:48:09;-3.60;99.90
16158;DHT22;8184;60.256;18.694;2022-12-07T10:50:48;-3.40;99.90
16158;DHT22;8184;60.256;18.694;2022-12-07T10:53:26;-3.50;99.90
16158;DHT22;8184;60.256;18.694;2022-12-07T10:56:02;-3.50;99.90
16158;DHT22;8184;60.256;18.694;2022-12-07T10:58:37;-3.40;99.90
16158;DHT22;8184;60.256;18.694;2022-12-07T11:01:13;-3.40;99.90
16158;DHT22;8184;60.256;18.694;2022-12-07T11:03:49;-3.20;99.90
16158;DHT22;8184;60.256;18.694;2022-12-07T11:06:22;-3.30;99.90
16158;DHT22;8184;60.256;18.694;2022-12-07T11:08:56;-3.30;99.90
16158;DHT22;8184;60.256;18.694;2022-12-07T11:11:30;-3.20;99.90
16158;DHT22;8184;60.256;18.694;2022-12-07T11:14:07;-3.30;99.90
16158;DHT22;8184;60.256;18.694;2022-12-07T11:16:47;-3.30;99.90
16158;DHT22;8184;60.256;18.694;2022-12-07T11:19:24;-3.20;99.90
16158;DHT22;8184;60.256;18.694;2022-12-07T11:21:56;-3.30;99.90
16158;DHT22;8184;60.256;18.694;2022-12-07T11:24:26;-3.30;99.90
16158;DHT22;8184;60.256;18.694;2022-12-07T11:27:03;-3.20;99.90
16158;DHT22;8184;60.256;18.694;2022-12-07T11:29:39;-3.20;99.90
16158;DHT22;8184;60.256;18.694;2022-12-07T11:32:13;-3.20;99.90
16158;DHT22;8184;60.256;18.694;2022-12-07T11:34:44;-3.20;99.90
16158;DHT22;8184;60.256;18.694;2022-12-07T11:37:17;-3.30;99.90
16158;DHT22;8184;60.256;18.694;2022-12-07T11:39:47;-3.30;99.90
16158;DHT22;8184;60.256;18.694;2022-12-07T11:42:21;-3.30;99.90
16158;DHT22;8184;60.256;18.694;2022-12-07T11:44:50;-3.20;99.90
16158;DHT22;8184;60.256;18.694;2022-12-07T11:47:22;-3.20;99.90
16158;DHT22;8184;60.256;18.694;2022-12-07T11:49:54;-3.20;99.90
16158;DHT22;8184;60.256;18.694;2022-12-07T11:52:43;-3.10;99.90
16158;DHT22;8184;60.256;18.694;2022-12-07T11:55:18;-3.20;99.90
16158;DHT22;8184;60.256;18.694;2022-12-07T11:57:50;-3.20;99.90
16158;DHT22;8184;60.256;18.694;2022-12-07T12:00:19;-3.20;99.90
16158;DHT22;8184;60.256;18.694;2022-12-07T12:02:51;-3.30;99.90
16158;DHT22;8184;60.256;18.694;2022-12-07T12:05:21;-3.30;99.90
16158;DHT22;8184;60.256;18.694;2022-12-07T12:07:51;-3.20;99.90
16158;DHT22;8184;60.256;18.694;2022-12-07T12:10:45;-3.20;99.90
16158;DHT22;8184;60.256;18.694;2022-12-07T12:16:32;-3.20;99.90
16158;DHT22;8184;60.256;18.694;2022-12-07T12:19:18;-3.20;99.90
16158;DHT22;8184;60.256;18.694;2022-12-07T12:21:47;-3.00;99.90
16158;DHT22;8184;60.256;18.694;2022-12-07T12:24:24;-3.00;99.90
16158;DHT22;8184;60.256;18.694;2022-12-07T12:26:58;-3.00;99.90
16158;DHT22;8184;60.256;18.694;2022-12-07T12:29:30;-3.00;99.90
16158;DHT22;8184;60.256;18.694;2022-12-07T12:32:11;-3.10;99.90
16158;DHT22;8184;60.256;18.694;2022-12-07T12:34:41;-3.20;99.90
16158;DHT22;8184;60.256;18.694;2022-12-07T12:42:49;-3.10;99.90
16158;DHT22;8184;60.256;18.694;2022-12-07T12:45:19;-3.30;99.90
16158;DHT22;8184;60.256;18.694;2022-12-07T12:47:56;-3.10;99.90
16158;DHT22;8184;60.256;18.694;2022-12-07T12:50:26;-3.20;99.90
16158;DHT22;8184;60.256;18.694;2022-12-07T12:52:55;-2.90;99.90
16158;DHT22;8184;60.256;18.694;2022-12-07T12:55:28;-3.00;99.90
16158;DHT22;8184;60.256;18.694;2022-12-07T12:58:21;-3.20;99.90
16158;DHT22;8184;60.256;18.694;2022-12-07T13:03:51;-3.00;99.90
16158;DHT22;8184;60.256;18.694;2022-12-07T13:06:31;-3.10;99.90
16158;DHT22;8184;60.256;18.694;2022-12-07T13:09:02;-3.10;99.90
16158;DHT22;8184;60.256;18.694;2022-12-07T13:11:31;-3.00;99.90
16158;DHT22;8184;60.256;18.694;2022-12-07T13:16:59;-3.10;99.90
16158;DHT22;8184;60.256;18.694;2022-12-07T13:22:38;-3.00;99.90
16158;DHT22;8184;60.256;18.694;2022-12-07T13:25:07;-3.00;99.90
16158;DHT22;8184;60.256;18.694;2022-12-07T13:27:39;-3.00;99.90
16158;DHT22;8184;60.256;18.694;2022-12-07T13:30:11;-3.20;99.90
16158;DHT22;8184;60.256;18.694;2022-12-07T13:32:41;-3.20;99.90
16158;DHT22;8184;60.256;18.694;2022-12-07T13:35:29;-3.10;99.90
16158;DHT22;8184;60.256;18.694;2022-12-07T13:37:59;-3.20;99.90
16158;DHT22;8184;60.256;18.694;2022-12-07T13:40:27;-3.20;99.90
16158;DHT22;8184;60.256;18.694;2022-12-07T13:42:59;-3.20;99.90
16158;DHT22;8184;60.256;18.694;2022-12-07T13:45:28;-3.10;99.90
16158;DHT22;8184;60.256;18.694;2022-12-07T13:48:11;-3.00;99.90
16158;DHT22;8184;60.256;18.694;2022-12-07T13:50:42;-3.10;99.90
16158;DHT22;8184;60.256;18.694;2022-12-07T13:53:12;-3.20;99.90
16158;DHT22;8184;60.256;18.694;2022-12-07T13:55:44;-3.20;99.90
16158;DHT22;8184;60.256;18.694;2022-12-07T13:58:19;-3.30;99.90
16158;DHT22;8184;60.256;18.694;2022-12-07T14:00:48;-3.20;99.90
16158;DHT22;8184;60.256;18.694;2022-12-07T14:06:03;-3.30;99.90
16158;DHT22;8184;60.256;18.694;2022-12-07T14:08:33;-3.20;99.90
16158;DHT22;8184;60.256;18.694;2022-12-07T14:11:02;-3.20;99.90
16158;DHT22;8184;60.256;18.694;2022-12-07T14:13:31;-3.00;99.90
16158;DHT22;8184;60.256;18.694;2022-12-07T14:16:00;-3.10;99.90
16158;DHT22;8184;60.256;18.694;2022-12-07T14:18:29;-3.20;99.90
16158;DHT22;8184;60.256;18.694;2022-12-07T14:21:04;-3.30;99.90
16158;DHT22;8184;60.256;18.694;2022-12-07T14:23:34;-3.50;99.90
16158;DHT22;8184;60.256;18.694;2022-12-07T14:26:06;-3.70;99.90
16158;DHT22;8184;60.256;18.694;2022-12-07T14:28:35;-3.80;99.90
16158;DHT22;8184;60.256;18.694;2022-12-07T14:31:07;-3.90;99.90
16158;DHT22;8184;60.256;18.694;2022-12-07T14:33:46;-4.00;99.90
16158;DHT22;8184;60.256;18.694;2022-12-07T14:36:14;-4.00;99.90
16158;DHT22;8184;60.256;18.694;2022-12-07T14:38:44;-4.00;99.90
16158;DHT22;8184;60.256;18.694;2022-12-07T14:41:13;-3.90;99.90
16158;DHT22;8184;60.256;18.694;2022-12-07T14:44:00;-4.00;99.90
16158;DHT22;8184;60.256;18.694;2022-12-07T14:46:48;-4.10;99.90
16158;DHT22;8184;60.256;18.694;2022-12-07T14:49:37;-4.10;99.90
16158;DHT22;8184;60.256;18.694;2022-12-07T14:52:05;-4.20;99.90
16158;DHT22;8184;60.256;18.694;2022-12-07T14:54:55;-4.30;99.90
16158;DHT22;8184;60.256;18.694;2022-12-07T14:57:24;-4.30;99.90
16158;DHT22;8184;60.256;18.694;2022-12-07T14:59:52;-4.30;99.90
16158;DHT22;8184;60.256;18.694;2022-12-07T15:02:20;-4.30;99.90
16158;DHT22;8184;60.256;18.694;2022-12-07T15:04:48;-4.40;99.90
16158;DHT22;8184;60.256;18.694;2022-12-07T15:07:18;-4.40;99.90
16158;DHT22;8184;60.256;18.694;2022-12-07T15:09:47;-4.40;99.90
16158;DHT22;8184;60.256;18.694;2022-12-07T15:12:17;-4.40;99.90
16158;DHT22;8184;60.256;18.694;2022-12-07T15:14:48;-4.50;99.90
16158;DHT22;8184;60.256;18.694;2022-12-07T15:17:16;-4.40;99.90
16158;DHT22;8184;60.256;18.694;2022-12-07T15:19:57;-4.40;99.90
16158;DHT22;8184;60.256;18.694;2022-12-07T15:22:25;-4.40;99.90
16158;DHT22;8184;60.256;18.694;2022-12-07T15:24:53;-4.40;99.90
16158;DHT22;8184;60.256;18.694;2022-12-07T15:27:23;-4.40;99.90
16158;DHT22;8184;60.256;18.694;2022-12-07T15:29:51;-4.30;99.90
16158;DHT22;8184;60.256;18.694;2022-12-07T15:32:20;-4.20;99.90
16158;DHT22;8184;60.256;18.694;2022-12-07T15:34:49;-4.20;99.90
16158;DHT22;8184;60.256;18.694;2022-12-07T15:37:17;-4.00;99.90
16158;DHT22;8184;60.256;18.694;2022-12-07T15:39:45;-3.70;99.90
16158;DHT22;8184;60.256;18.694;2022-12-07T15:42:14;-3.90;99.90
16158;DHT22;8184;60.256;18.694;2022-12-07T15:44:43;-3.60;99.90
16158;DHT22;8184;60.256;18.694;2022-12-07T15:47:29;-3.40;99.90
16158;DHT22;8184;60.256;18.694;2022-12-07T15:49:58;-3.20;99.90
16158;DHT22;8184;60.256;18.694;2022-12-07T15:52:27;-3.10;99.90
16158;DHT22;8184;60.256;18.694;2022-12-07T15:54:55;-3.00;99.90
16158;DHT22;8184;60.256;18.694;2022-12-07T15:57:24;-3.00;99.90
16158;DHT22;8184;60.256;18.694;2022-12-07T15:59:54;-2.70;99.90
16158;DHT22;8184;60.256;18.694;2022-12-07T16:02:22;-2.30;99.90
16158;DHT22;8184;60.256;18.694;2022-12-07T16:04:51;-2.30;99.90
16158;DHT22;8184;60.256;18.694;2022-12-07T16:07:19;-2.30;99.90
16158;DHT22;8184;60.256;18.694;2022-12-07T16:09:48;-2.20;99.90
16158;DHT22;8184;60.256;18.694;2022-12-07T16:12:16;-2.20;99.90
16158;DHT22;8184;60.256;18.694;2022-12-07T16:14:44;-2.20;99.90
16158;DHT22;8184;60.256;18.694;2022-12-07T16:17:14;-2.00;99.90
16158;DHT22;8184;60.256;18.694;2022-12-07T16:19:42;-2.00;99.90